sensor_id;sensor_type;location;lat;lon;timestamp;P1;durP1;ratioP1;P2;durP2;ratioP2
62711;SDS011;48772;55.586;37.730;2023-02-25T00:01:17;15.65;;;8.23;;
62711;SDS011;48772;55.586;37.730;2023-02-25T00:03:45;29.75;;;12.07;;
62711;SDS011;48772;55.586;37.730;2023-02-25T00:06:12;19.38;;;8.43;;
62711;SDS011;48772;55.586;37.730;2023-02-25T00:08:43;27.67;;;12.93;;
62711;SDS011;48772;55.586;37.730;2023-02-25T00:11:10;14.32;;;7.60;;
62711;SDS011;48772;55.586;37.730;2023-02-25T00:13:38;17.90;;;7.25;;
62711;SDS011;48772;55.586;37.730;2023-02-25T00:16:06;22.15;;;10.63;;
62711;SDS011;48772;55.586;37.730;2023-02-25T00:18:33;32.45;;;13.90;;
62711;SDS011;48772;55.586;37.730;2023-02-25T00:21:02;27.75;;;11.70;;
62711;SDS011;48772;55.586;37.730;2023-02-25T00:23:29;17.13;;;10.05;;
62711;SDS011;48772;55.586;37.730;2023-02-25T00:25:59;33.00;;;13.20;;
62711;SDS011;48772;55.586;37.730;2023-02-25T00:28:28;27.27;;;12.40;;
62711;SDS011;48772;55.586;37.730;2023-02-25T00:30:54;26.85;;;12.55;;
62711;SDS011;48772;55.586;37.730;2023-02-25T00:33:20;30.70;;;13.30;;
62711;SDS011;48772;55.586;37.730;2023-02-25T00:35:47;23.55;;;11.10;;
62711;SDS011;48772;55.586;37.730;2023-02-25T00:38:17;23.60;;;10.32;;
62711;SDS011;48772;55.586;37.730;2023-02-25T00:40:48;18.20;;;9.55;;
62711;SDS011;48772;55.586;37.730;2023-02-25T00:43:16;17.48;;;9.05;;
62711;SDS011;48772;55.586;37.730;2023-02-25T00:45:43;24.85;;;11.38;;
62711;SDS011;48772;55.586;37.730;2023-02-25T00:48:11;26.00;;;11.32;;
62711;SDS011;48772;55.586;37.730;2023-02-25T00:50:37;18.52;;;7.90;;
62711;SDS011;48772;55.586;37.730;2023-02-25T00:53:04;20.40;;;9.65;;
62711;SDS011;48772;55.586;37.730;2023-02-25T00:55:34;27.10;;;12.60;;
62711;SDS011;48772;55.586;37.730;2023-02-25T00:58:00;23.63;;;11.40;;
62711;SDS011;48772;55.586;37.730;2023-02-25T01:00:26;3.50;;;3.20;;
62711;SDS011;48772;55.586;37.730;2023-02-25T01:02:54;28.02;;;12.15;;
62711;SDS011;48772;55.586;37.730;2023-02-25T01:05:22;23.20;;;10.98;;
62711;SDS011;48772;55.586;37.730;2023-02-25T01:07:48;26.15;;;12.68;;
62711;SDS011;48772;55.586;37.730;2023-02-25T01:10:15;28.80;;;12.27;;
62711;SDS011;48772;55.586;37.730;2023-02-25T01:12:41;24.00;;;11.63;;
62711;SDS011;48772;55.586;37.730;2023-02-25T01:15:07;12.23;;;6.38;;
62711;SDS011;48772;55.586;37.730;2023-02-25T01:17:34;10.02;;;6.25;;
62711;SDS011;48772;55.586;37.730;2023-02-25T01:20:00;15.65;;;6.65;;
62711;SDS011;48772;55.586;37.730;2023-02-25T01:22:30;29.83;;;12.73;;
62711;SDS011;48772;55.586;37.730;2023-02-25T01:24:59;20.15;;;10.25;;
62711;SDS011;48772;55.586;37.730;2023-02-25T01:27:24;16.65;;;7.45;;
62711;SDS011;48772;55.586;37.730;2023-02-25T01:29:51;19.35;;;9.68;;
62711;SDS011;48772;55.586;37.730;2023-02-25T01:32:16;24.73;;;11.35;;
62711;SDS011;48772;55.586;37.730;2023-02-25T01:34:43;14.27;;;6.63;;
62711;SDS011;48772;55.586;37.730;2023-02-25T01:37:09;20.02;;;8.00;;
62711;SDS011;48772;55.586;37.730;2023-02-25T01:39:38;20.90;;;10.27;;
62711;SDS011;48772;55.586;37.730;2023-02-25T01:42:09;24.80;;;10.85;;
62711;SDS011;48772;55.586;37.730;2023-02-25T01:47:45;38.75;;;13.27;;
62711;SDS011;48772;55.586;37.730;2023-02-25T01:50:16;17.73;;;9.27;;
62711;SDS011;48772;55.586;37.730;2023-02-25T01:52:44;24.88;;;11.40;;
62711;SDS011;48772;55.586;37.730;2023-02-25T01:55:12;19.27;;;8.55;;
62711;SDS011;48772;55.586;37.730;2023-02-25T01:57:38;17.15;;;7.00;;
62711;SDS011;48772;55.586;37.730;2023-02-25T02:00:05;30.70;;;14.70;;
62711;SDS011;48772;55.586;37.730;2023-02-25T02:02:38;26.80;;;11.98;;
62711;SDS011;48772;55.586;37.730;2023-02-25T02:05:07;16.80;;;7.88;;
62711;SDS011;48772;55.586;37.730;2023-02-25T02:07:33;23.02;;;11.70;;
62711;SDS011;48772;55.586;37.730;2023-02-25T02:10:00;28.38;;;13.13;;
62711;SDS011;48772;55.586;37.730;2023-02-25T02:12:32;22.83;;;11.05;;
62711;SDS011;48772;55.586;37.730;2023-02-25T02:15:03;19.08;;;9.27;;
62711;SDS011;48772;55.586;37.730;2023-02-25T02:20:15;18.98;;;9.77;;
62711;SDS011;48772;55.586;37.730;2023-02-25T02:25:35;16.65;;;8.48;;
62711;SDS011;48772;55.586;37.730;2023-02-25T02:31:22;25.58;;;10.77;;
62711;SDS011;48772;55.586;37.730;2023-02-25T02:39:33;26.20;;;12.88;;
62711;SDS011;48772;55.586;37.730;2023-02-25T02:47:34;19.23;;;8.02;;
62711;SDS011;48772;55.586;37.730;2023-02-25T02:50:08;24.33;;;10.35;;
62711;SDS011;48772;55.586;37.730;2023-02-25T02:53:00;24.70;;;10.93;;
62711;SDS011;48772;55.586;37.730;2023-02-25T02:55:35;18.15;;;9.35;;
62711;SDS011;48772;55.586;37.730;2023-02-25T02:58:08;10.07;;;5.93;;
62711;SDS011;48772;55.586;37.730;2023-02-25T03:00:41;24.02;;;10.57;;
62711;SDS011;48772;55.586;37.730;2023-02-25T03:03:14;19.70;;;10.13;;
62711;SDS011;48772;55.586;37.730;2023-02-25T03:05:45;26.77;;;12.40;;
62711;SDS011;48772;55.586;37.730;2023-02-25T03:08:24;18.90;;;8.27;;
62711;SDS011;48772;55.586;37.730;2023-02-25T03:10:59;22.90;;;9.73;;
62711;SDS011;48772;55.586;37.730;2023-02-25T03:13:27;30.15;;;13.20;;
62711;SDS011;48772;55.586;37.730;2023-02-25T03:15:58;31.63;;;13.57;;
62711;SDS011;48772;55.586;37.730;2023-02-25T03:18:28;26.75;;;11.75;;
62711;SDS011;48772;55.586;37.730;2023-02-25T03:20:59;26.27;;;12.52;;
62711;SDS011;48772;55.586;37.730;2023-02-25T03:23:34;24.30;;;12.45;;
62711;SDS011;48772;55.586;37.730;2023-02-25T03:28:38;14.68;;;6.53;;
62711;SDS011;48772;55.586;37.730;2023-02-25T03:31:17;25.48;;;12.50;;
62711;SDS011;48772;55.586;37.730;2023-02-25T03:36:18;18.10;;;8.95;;
62711;SDS011;48772;55.586;37.730;2023-02-25T03:38:58;16.02;;;7.50;;
62711;SDS011;48772;55.586;37.730;2023-02-25T03:41:35;21.73;;;10.30;;
62711;SDS011;48772;55.586;37.730;2023-02-25T03:44:11;24.08;;;12.50;;
62711;SDS011;48772;55.586;37.730;2023-02-25T03:46:42;13.15;;;6.97;;
62711;SDS011;48772;55.586;37.730;2023-02-25T03:49:20;32.75;;;12.68;;
62711;SDS011;48772;55.586;37.730;2023-02-25T03:52:12;27.38;;;12.60;;
62711;SDS011;48772;55.586;37.730;2023-02-25T03:57:55;14.27;;;7.90;;
62711;SDS011;48772;55.586;37.730;2023-02-25T04:00:27;22.65;;;10.68;;
62711;SDS011;48772;55.586;37.730;2023-02-25T04:02:55;24.67;;;12.25;;
62711;SDS011;48772;55.586;37.730;2023-02-25T04:05:25;16.00;;;8.20;;
62711;SDS011;48772;55.586;37.730;2023-02-25T04:07:57;14.55;;;7.28;;
62711;SDS011;48772;55.586;37.730;2023-02-25T04:10:41;20.33;;;9.82;;
62711;SDS011;48772;55.586;37.730;2023-02-25T04:19:10;26.75;;;11.48;;
62711;SDS011;48772;55.586;37.730;2023-02-25T04:21:58;17.67;;;8.05;;
62711;SDS011;48772;55.586;37.730;2023-02-25T04:25:40;9.23;;;6.95;;
62711;SDS011;48772;55.586;37.730;2023-02-25T04:31:17;15.73;;;8.23;;
62711;SDS011;48772;55.586;37.730;2023-02-25T04:33:46;30.52;;;14.18;;
62711;SDS011;48772;55.586;37.730;2023-02-25T04:36:47;28.00;;;12.38;;
62711;SDS011;48772;55.586;37.730;2023-02-25T04:39:13;18.00;;;7.80;;
62711;SDS011;48772;55.586;37.730;2023-02-25T04:41:43;25.73;;;12.50;;
62711;SDS011;48772;55.586;37.730;2023-02-25T04:44:10;30.15;;;14.82;;
62711;SDS011;48772;55.586;37.730;2023-02-25T04:46:38;26.75;;;13.38;;
62711;SDS011;48772;55.586;37.730;2023-02-25T04:49:09;22.83;;;11.35;;
62711;SDS011;48772;55.586;37.730;2023-02-25T04:51:36;24.58;;;12.02;;
62711;SDS011;48772;55.586;37.730;2023-02-25T04:54:03;28.48;;;13.15;;
62711;SDS011;48772;55.586;37.730;2023-02-25T04:56:30;13.18;;;7.60;;
62711;SDS011;48772;55.586;37.730;2023-02-25T04:59:06;17.52;;;8.57;;
62711;SDS011;48772;55.586;37.730;2023-02-25T05:01:32;19.10;;;9.13;;
62711;SDS011;48772;55.586;37.730;2023-02-25T05:04:00;20.73;;;10.07;;
62711;SDS011;48772;55.586;37.730;2023-02-25T05:06:27;20.52;;;10.00;;
62711;SDS011;48772;55.586;37.730;2023-02-25T05:08:55;27.08;;;11.48;;
62711;SDS011;48772;55.586;37.730;2023-02-25T05:11:25;28.20;;;13.50;;
62711;SDS011;48772;55.586;37.730;2023-02-25T05:13:52;24.10;;;11.45;;
62711;SDS011;48772;55.586;37.730;2023-02-25T05:16:20;15.82;;;9.48;;
62711;SDS011;48772;55.586;37.730;2023-02-25T05:18:47;23.15;;;11.85;;
62711;SDS011;48772;55.586;37.730;2023-02-25T05:21:34;19.05;;;9.50;;
62711;SDS011;48772;55.586;37.730;2023-02-25T05:24:00;27.33;;;14.27;;
62711;SDS011;48772;55.586;37.730;2023-02-25T05:26:28;18.98;;;9.60;;
62711;SDS011;48772;55.586;37.730;2023-02-25T05:28:55;14.75;;;8.43;;
62711;SDS011;48772;55.586;37.730;2023-02-25T05:34:53;27.83;;;13.48;;
62711;SDS011;48772;55.586;37.730;2023-02-25T05:37:22;28.17;;;11.60;;
62711;SDS011;48772;55.586;37.730;2023-02-25T05:39:51;17.33;;;10.13;;
62711;SDS011;48772;55.586;37.730;2023-02-25T05:42:18;23.38;;;12.07;;
62711;SDS011;48772;55.586;37.730;2023-02-25T05:44:48;22.20;;;11.07;;
62711;SDS011;48772;55.586;37.730;2023-02-25T05:47:14;12.48;;;6.07;;
62711;SDS011;48772;55.586;37.730;2023-02-25T05:49:41;22.95;;;11.65;;
62711;SDS011;48772;55.586;37.730;2023-02-25T05:52:10;22.10;;;11.48;;
62711;SDS011;48772;55.586;37.730;2023-02-25T05:54:38;25.40;;;12.23;;
62711;SDS011;48772;55.586;37.730;2023-02-25T05:57:05;18.40;;;9.55;;
62711;SDS011;48772;55.586;37.730;2023-02-25T06:03:26;15.02;;;7.90;;
62711;SDS011;48772;55.586;37.730;2023-02-25T06:05:59;15.85;;;7.82;;
62711;SDS011;48772;55.586;37.730;2023-02-25T06:08:25;16.42;;;8.68;;
62711;SDS011;48772;55.586;37.730;2023-02-25T06:10:52;21.63;;;10.07;;
62711;SDS011;48772;55.586;37.730;2023-02-25T06:13:18;20.27;;;9.65;;
62711;SDS011;48772;55.586;37.730;2023-02-25T06:15:45;19.70;;;10.52;;
62711;SDS011;48772;55.586;37.730;2023-02-25T06:18:12;24.23;;;12.07;;
62711;SDS011;48772;55.586;37.730;2023-02-25T06:20:38;9.18;;;5.63;;
62711;SDS011;48772;55.586;37.730;2023-02-25T06:23:05;20.83;;;10.13;;
62711;SDS011;48772;55.586;37.730;2023-02-25T06:25:31;18.10;;;10.20;;
62711;SDS011;48772;55.586;37.730;2023-02-25T06:27:58;13.18;;;7.32;;
62711;SDS011;48772;55.586;37.730;2023-02-25T06:30:25;16.95;;;8.90;;
62711;SDS011;48772;55.586;37.730;2023-02-25T06:32:51;9.07;;;6.18;;
62711;SDS011;48772;55.586;37.730;2023-02-25T06:35:17;10.90;;;6.45;;
62711;SDS011;48772;55.586;37.730;2023-02-25T06:37:57;20.30;;;9.98;;
62711;SDS011;48772;55.586;37.730;2023-02-25T06:40:26;16.40;;;10.38;;
62711;SDS011;48772;55.586;37.730;2023-02-25T06:42:57;12.23;;;6.72;;
62711;SDS011;48772;55.586;37.730;2023-02-25T06:45:24;15.20;;;8.93;;
62711;SDS011;48772;55.586;37.730;2023-02-25T06:47:49;11.68;;;6.28;;
62711;SDS011;48772;55.586;37.730;2023-02-25T06:50:15;11.50;;;6.95;;
62711;SDS011;48772;55.586;37.730;2023-02-25T06:52:42;17.27;;;10.18;;
62711;SDS011;48772;55.586;37.730;2023-02-25T06:55:08;14.70;;;8.60;;
62711;SDS011;48772;55.586;37.730;2023-02-25T06:57:35;15.98;;;8.35;;
62711;SDS011;48772;55.586;37.730;2023-02-25T07:00:02;9.98;;;6.55;;
62711;SDS011;48772;55.586;37.730;2023-02-25T07:02:30;14.15;;;8.70;;
62711;SDS011;48772;55.586;37.730;2023-02-25T07:04:56;12.57;;;7.75;;
62711;SDS011;48772;55.586;37.730;2023-02-25T07:07:22;14.50;;;8.77;;
62711;SDS011;48772;55.586;37.730;2023-02-25T07:09:48;13.55;;;7.45;;
62711;SDS011;48772;55.586;37.730;2023-02-25T07:12:14;12.20;;;5.13;;
62711;SDS011;48772;55.586;37.730;2023-02-25T07:14:40;10.63;;;6.65;;
62711;SDS011;48772;55.586;37.730;2023-02-25T07:17:06;19.05;;;7.50;;
62711;SDS011;48772;55.586;37.730;2023-02-25T07:19:32;12.48;;;7.32;;
62711;SDS011;48772;55.586;37.730;2023-02-25T07:21:58;11.52;;;5.43;;
62711;SDS011;48772;55.586;37.730;2023-02-25T07:24:24;8.63;;;5.55;;
62711;SDS011;48772;55.586;37.730;2023-02-25T07:26:51;10.95;;;7.07;;
62711;SDS011;48772;55.586;37.730;2023-02-25T07:29:20;17.70;;;7.65;;
62711;SDS011;48772;55.586;37.730;2023-02-25T07:31:46;13.73;;;8.57;;
62711;SDS011;48772;55.586;37.730;2023-02-25T07:34:12;8.40;;;5.80;;
62711;SDS011;48772;55.586;37.730;2023-02-25T07:36:39;12.38;;;5.90;;
62711;SDS011;48772;55.586;37.730;2023-02-25T07:39:06;14.55;;;7.50;;
62711;SDS011;48772;55.586;37.730;2023-02-25T07:41:34;11.95;;;7.95;;
62711;SDS011;48772;55.586;37.730;2023-02-25T07:44:02;13.45;;;8.35;;
62711;SDS011;48772;55.586;37.730;2023-02-25T07:46:29;13.70;;;6.88;;
62711;SDS011;48772;55.586;37.730;2023-02-25T07:48:55;9.35;;;6.63;;
62711;SDS011;48772;55.586;37.730;2023-02-25T07:51:32;11.93;;;7.15;;
62711;SDS011;48772;55.586;37.730;2023-02-25T07:54:01;8.80;;;5.88;;
62711;SDS011;48772;55.586;37.730;2023-02-25T07:56:27;8.85;;;5.57;;
62711;SDS011;48772;55.586;37.730;2023-02-25T07:58:54;12.85;;;7.57;;
62711;SDS011;48772;55.586;37.730;2023-02-25T08:01:22;9.98;;;6.30;;
62711;SDS011;48772;55.586;37.730;2023-02-25T08:03:52;10.18;;;6.90;;
62711;SDS011;48772;55.586;37.730;2023-02-25T08:06:20;12.45;;;7.43;;
62711;SDS011;48772;55.586;37.730;2023-02-25T08:08:46;16.55;;;8.35;;
62711;SDS011;48772;55.586;37.730;2023-02-25T08:11:12;12.48;;;7.63;;
62711;SDS011;48772;55.586;37.730;2023-02-25T08:13:39;9.43;;;5.13;;
62711;SDS011;48772;55.586;37.730;2023-02-25T08:16:06;7.25;;;4.93;;
62711;SDS011;48772;55.586;37.730;2023-02-25T08:18:35;13.18;;;7.35;;
62711;SDS011;48772;55.586;37.730;2023-02-25T08:21:02;13.95;;;6.80;;
62711;SDS011;48772;55.586;37.730;2023-02-25T08:23:31;11.45;;;7.30;;
62711;SDS011;48772;55.586;37.730;2023-02-25T08:25:58;11.50;;;7.55;;
62711;SDS011;48772;55.586;37.730;2023-02-25T08:28:25;14.98;;;7.90;;
62711;SDS011;48772;55.586;37.730;2023-02-25T08:30:53;15.82;;;6.65;;
62711;SDS011;48772;55.586;37.730;2023-02-25T08:33:19;5.57;;;4.22;;
62711;SDS011;48772;55.586;37.730;2023-02-25T08:35:45;8.43;;;4.63;;
62711;SDS011;48772;55.586;37.730;2023-02-25T08:38:12;12.68;;;7.03;;
62711;SDS011;48772;55.586;37.730;2023-02-25T08:40:38;8.45;;;5.78;;
62711;SDS011;48772;55.586;37.730;2023-02-25T08:43:07;8.77;;;5.30;;
62711;SDS011;48772;55.586;37.730;2023-02-25T08:45:34;12.00;;;7.32;;
62711;SDS011;48772;55.586;37.730;2023-02-25T08:48:02;16.77;;;6.95;;
62711;SDS011;48772;55.586;37.730;2023-02-25T08:50:29;9.93;;;4.07;;
62711;SDS011;48772;55.586;37.730;2023-02-25T08:52:59;41.10;;;25.40;;
62711;SDS011;48772;55.586;37.730;2023-02-25T08:55:28;9.52;;;5.95;;
62711;SDS011;48772;55.586;37.730;2023-02-25T08:57:54;7.40;;;4.95;;
62711;SDS011;48772;55.586;37.730;2023-02-25T09:00:20;7.13;;;5.20;;
62711;SDS011;48772;55.586;37.730;2023-02-25T09:02:46;5.68;;;4.03;;
62711;SDS011;48772;55.586;37.730;2023-02-25T09:05:13;15.35;;;7.28;;
62711;SDS011;48772;55.586;37.730;2023-02-25T09:07:39;9.95;;;6.78;;
62711;SDS011;48772;55.586;37.730;2023-02-25T09:10:05;12.55;;;5.13;;
62711;SDS011;48772;55.586;37.730;2023-02-25T09:12:34;12.90;;;6.68;;
62711;SDS011;48772;55.586;37.730;2023-02-25T09:15:02;10.75;;;6.65;;
62711;SDS011;48772;55.586;37.730;2023-02-25T09:17:32;7.13;;;4.82;;
62711;SDS011;48772;55.586;37.730;2023-02-25T09:19:58;4.03;;;3.13;;
62711;SDS011;48772;55.586;37.730;2023-02-25T09:22:46;13.15;;;5.22;;
62711;SDS011;48772;55.586;37.730;2023-02-25T09:25:12;4.15;;;3.70;;
62711;SDS011;48772;55.586;37.730;2023-02-25T09:27:38;6.78;;;4.82;;
62711;SDS011;48772;55.586;37.730;2023-02-25T09:30:04;6.07;;;4.47;;
62711;SDS011;48772;55.586;37.730;2023-02-25T09:32:30;13.55;;;6.90;;
62711;SDS011;48772;55.586;37.730;2023-02-25T09:34:56;7.28;;;4.40;;
62711;SDS011;48772;55.586;37.730;2023-02-25T09:37:22;7.85;;;4.85;;
62711;SDS011;48772;55.586;37.730;2023-02-25T09:39:50;8.50;;;5.40;;
62711;SDS011;48772;55.586;37.730;2023-02-25T09:42:22;9.50;;;5.97;;
62711;SDS011;48772;55.586;37.730;2023-02-25T09:45:00;9.15;;;5.80;;
62711;SDS011;48772;55.586;37.730;2023-02-25T09:47:43;4.03;;;3.38;;
62711;SDS011;48772;55.586;37.730;2023-02-25T09:50:22;3.20;;;2.88;;
62711;SDS011;48772;55.586;37.730;2023-02-25T09:56:03;10.30;;;5.13;;
62711;SDS011;48772;55.586;37.730;2023-02-25T10:01:27;9.15;;;4.88;;
62711;SDS011;48772;55.586;37.730;2023-02-25T10:06:49;8.40;;;5.82;;
62711;SDS011;48772;55.586;37.730;2023-02-25T10:11:48;6.63;;;5.18;;
62711;SDS011;48772;55.586;37.730;2023-02-25T10:26:33;9.25;;;4.10;;
62711;SDS011;48772;55.586;37.730;2023-02-25T10:29:48;5.03;;;3.88;;
62711;SDS011;48772;55.586;37.730;2023-02-25T10:32:18;6.28;;;4.28;;
62711;SDS011;48772;55.586;37.730;2023-02-25T10:34:51;2.60;;;2.35;;
62711;SDS011;48772;55.586;37.730;2023-02-25T10:37:46;9.82;;;4.25;;
62711;SDS011;48772;55.586;37.730;2023-02-25T10:40:18;6.32;;;3.65;;
62711;SDS011;48772;55.586;37.730;2023-02-25T10:43:19;5.97;;;4.68;;
62711;SDS011;48772;55.586;37.730;2023-02-25T10:46:13;4.97;;;3.72;;
62711;SDS011;48772;55.586;37.730;2023-02-25T10:49:30;9.75;;;4.78;;
62711;SDS011;48772;55.586;37.730;2023-02-25T10:52:31;7.75;;;4.65;;
62711;SDS011;48772;55.586;37.730;2023-02-25T10:54:58;7.43;;;4.15;;
62711;SDS011;48772;55.586;37.730;2023-02-25T10:57:33;6.97;;;4.38;;
62711;SDS011;48772;55.586;37.730;2023-02-25T11:00:20;10.40;;;4.90;;
62711;SDS011;48772;55.586;37.730;2023-02-25T11:02:48;8.70;;;4.75;;
62711;SDS011;48772;55.586;37.730;2023-02-25T11:05:32;9.57;;;4.50;;
62711;SDS011;48772;55.586;37.730;2023-02-25T11:08:00;7.10;;;4.32;;
62711;SDS011;48772;55.586;37.730;2023-02-25T11:10:29;6.97;;;4.90;;
62711;SDS011;48772;55.586;37.730;2023-02-25T11:12:56;7.10;;;4.45;;
62711;SDS011;48772;55.586;37.730;2023-02-25T11:20:31;6.80;;;3.92;;
62711;SDS011;48772;55.586;37.730;2023-02-25T11:22:58;7.70;;;5.15;;
62711;SDS011;48772;55.586;37.730;2023-02-25T11:25:40;9.93;;;5.45;;
62711;SDS011;48772;55.586;37.730;2023-02-25T11:30:56;7.20;;;4.85;;
62711;SDS011;48772;55.586;37.730;2023-02-25T11:33:32;5.47;;;3.88;;
62711;SDS011;48772;55.586;37.730;2023-02-25T11:36:00;10.48;;;6.82;;
62711;SDS011;48772;55.586;37.730;2023-02-25T11:38:31;12.15;;;6.35;;
62711;SDS011;48772;55.586;37.730;2023-02-25T11:46:48;10.35;;;6.43;;
62711;SDS011;48772;55.586;37.730;2023-02-25T11:49:37;6.38;;;4.43;;
62711;SDS011;48772;55.586;37.730;2023-02-25T11:52:39;9.57;;;5.03;;
62711;SDS011;48772;55.586;37.730;2023-02-25T12:11:51;8.55;;;5.60;;
62711;SDS011;48772;55.586;37.730;2023-02-25T12:26:13;4.75;;;3.38;;
62711;SDS011;48772;55.586;37.730;2023-02-25T12:37:41;7.53;;;5.10;;
62711;SDS011;48772;55.586;37.730;2023-02-25T13:13:01;5.90;;;4.45;;
62711;SDS011;48772;55.586;37.730;2023-02-25T13:27:17;11.00;;;5.88;;
62711;SDS011;48772;55.586;37.730;2023-02-25T13:32:55;5.40;;;3.53;;
62711;SDS011;48772;55.586;37.730;2023-02-25T13:35:29;6.80;;;4.57;;
62711;SDS011;48772;55.586;37.730;2023-02-25T13:41:07;9.35;;;6.10;;
62711;SDS011;48772;55.586;37.730;2023-02-25T13:57:39;11.32;;;6.22;;
62711;SDS011;48772;55.586;37.730;2023-02-25T14:00:33;10.07;;;6.68;;
62711;SDS011;48772;55.586;37.730;2023-02-25T14:18:11;6.65;;;5.05;;
62711;SDS011;48772;55.586;37.730;2023-02-25T14:45:36;6.80;;;4.35;;
62711;SDS011;48772;55.586;37.730;2023-02-25T14:48:15;13.05;;;7.45;;
62711;SDS011;48772;55.586;37.730;2023-02-25T14:56:39;14.98;;;7.85;;
62711;SDS011;48772;55.586;37.730;2023-02-25T15:06:51;14.15;;;8.48;;
62711;SDS011;48772;55.586;37.730;2023-02-25T15:15:07;13.32;;;7.53;;
62711;SDS011;48772;55.586;37.730;2023-02-25T15:17:54;16.83;;;7.60;;
62711;SDS011;48772;55.586;37.730;2023-02-25T15:20:45;13.23;;;6.80;;
62711;SDS011;48772;55.586;37.730;2023-02-25T15:23:16;12.45;;;7.57;;
62711;SDS011;48772;55.586;37.730;2023-02-25T15:25:48;9.57;;;6.43;;
62711;SDS011;48772;55.586;37.730;2023-02-25T15:31:03;10.20;;;6.78;;
62711;SDS011;48772;55.586;37.730;2023-02-25T15:33:40;14.02;;;7.63;;
62711;SDS011;48772;55.586;37.730;2023-02-25T15:45:36;14.48;;;6.72;;
62711;SDS011;48772;55.586;37.730;2023-02-25T15:55:51;14.10;;;8.25;;
62711;SDS011;48772;55.586;37.730;2023-02-25T15:58:54;12.07;;;7.00;;
62711;SDS011;48772;55.586;37.730;2023-02-25T16:01:40;16.77;;;9.77;;
62711;SDS011;48772;55.586;37.730;2023-02-25T16:07:07;12.43;;;8.07;;
62711;SDS011;48772;55.586;37.730;2023-02-25T16:09:40;11.20;;;7.90;;
62711;SDS011;48772;55.586;37.730;2023-02-25T16:12:12;16.55;;;8.80;;
62711;SDS011;48772;55.586;37.730;2023-02-25T16:14:40;12.27;;;8.00;;
62711;SDS011;48772;55.586;37.730;2023-02-25T16:17:19;11.15;;;6.82;;
62711;SDS011;48772;55.586;37.730;2023-02-25T16:22:43;13.82;;;7.25;;
62711;SDS011;48772;55.586;37.730;2023-02-25T16:25:13;13.27;;;8.05;;
62711;SDS011;48772;55.586;37.730;2023-02-25T16:31:46;17.80;;;9.00;;
62711;SDS011;48772;55.586;37.730;2023-02-25T16:34:50;11.80;;;9.57;;
62711;SDS011;48772;55.586;37.730;2023-02-25T16:37:29;17.83;;;8.98;;
62711;SDS011;48772;55.586;37.730;2023-02-25T16:40:15;24.83;;;12.43;;
62711;SDS011;48772;55.586;37.730;2023-02-25T16:42:49;12.68;;;7.38;;
62711;SDS011;48772;55.586;37.730;2023-02-25T16:45:27;18.15;;;10.75;;
62711;SDS011;48772;55.586;37.730;2023-02-25T16:47:56;16.48;;;8.85;;
62711;SDS011;48772;55.586;37.730;2023-02-25T16:50:24;13.40;;;7.32;;
62711;SDS011;48772;55.586;37.730;2023-02-25T16:52:53;17.20;;;9.85;;
62711;SDS011;48772;55.586;37.730;2023-02-25T16:55:24;18.55;;;9.98;;
62711;SDS011;48772;55.586;37.730;2023-02-25T16:58:14;17.65;;;9.32;;
62711;SDS011;48772;55.586;37.730;2023-02-25T17:00:51;21.30;;;11.18;;
62711;SDS011;48772;55.586;37.730;2023-02-25T17:03:22;17.95;;;10.18;;
62711;SDS011;48772;55.586;37.730;2023-02-25T17:05:58;20.20;;;12.07;;
62711;SDS011;48772;55.586;37.730;2023-02-25T17:08:27;19.60;;;9.90;;
62711;SDS011;48772;55.586;37.730;2023-02-25T17:10:54;20.13;;;10.07;;
62711;SDS011;48772;55.586;37.730;2023-02-25T17:13:25;15.32;;;9.20;;
62711;SDS011;48772;55.586;37.730;2023-02-25T17:15:54;19.40;;;10.07;;
62711;SDS011;48772;55.586;37.730;2023-02-25T17:18:27;21.63;;;10.43;;
62711;SDS011;48772;55.586;37.730;2023-02-25T17:21:01;19.27;;;9.30;;
62711;SDS011;48772;55.586;37.730;2023-02-25T17:23:48;12.45;;;6.95;;
62711;SDS011;48772;55.586;37.730;2023-02-25T17:26:16;13.88;;;8.40;;
62711;SDS011;48772;55.586;37.730;2023-02-25T17:28:43;16.92;;;8.82;;
62711;SDS011;48772;55.586;37.730;2023-02-25T17:31:22;17.70;;;10.27;;
62711;SDS011;48772;55.586;37.730;2023-02-25T17:33:52;25.17;;;12.80;;
62711;SDS011;48772;55.586;37.730;2023-02-25T17:36:26;27.35;;;13.52;;
62711;SDS011;48772;55.586;37.730;2023-02-25T17:39:00;18.50;;;9.60;;
62711;SDS011;48772;55.586;37.730;2023-02-25T17:41:30;28.13;;;13.48;;
62711;SDS011;48772;55.586;37.730;2023-02-25T17:43:58;25.38;;;11.55;;
62711;SDS011;48772;55.586;37.730;2023-02-25T17:46:40;30.20;;;13.73;;
62711;SDS011;48772;55.586;37.730;2023-02-25T17:51:46;27.83;;;11.88;;
62711;SDS011;48772;55.586;37.730;2023-02-25T17:54:47;30.33;;;13.63;;
62711;SDS011;48772;55.586;37.730;2023-02-25T17:57:20;25.70;;;12.50;;
62711;SDS011;48772;55.586;37.730;2023-02-25T17:59:49;24.00;;;12.25;;
62711;SDS011;48772;55.586;37.730;2023-02-25T18:04:48;17.77;;;10.25;;
62711;SDS011;48772;55.586;37.730;2023-02-25T18:07:23;25.17;;;13.00;;
62711;SDS011;48772;55.586;37.730;2023-02-25T18:16:42;28.48;;;12.88;;
62711;SDS011;48772;55.586;37.730;2023-02-25T18:19:36;22.52;;;11.98;;
62711;SDS011;48772;55.586;37.730;2023-02-25T18:31:12;19.20;;;11.02;;
62711;SDS011;48772;55.586;37.730;2023-02-25T18:33:52;25.73;;;11.88;;
62711;SDS011;48772;55.586;37.730;2023-02-25T18:36:21;19.60;;;9.32;;
62711;SDS011;48772;55.586;37.730;2023-02-25T18:39:02;22.42;;;11.85;;
62711;SDS011;48772;55.586;37.730;2023-02-25T18:42:15;33.30;;;13.95;;
62711;SDS011;48772;55.586;37.730;2023-02-25T18:44:43;26.27;;;13.25;;
62711;SDS011;48772;55.586;37.730;2023-02-25T18:47:11;28.63;;;13.27;;
62711;SDS011;48772;55.586;37.730;2023-02-25T18:52:41;32.10;;;13.20;;
62711;SDS011;48772;55.586;37.730;2023-02-25T18:55:25;29.20;;;12.80;;
62711;SDS011;48772;55.586;37.730;2023-02-25T18:59:05;25.10;;;11.43;;
62711;SDS011;48772;55.586;37.730;2023-02-25T19:01:31;35.00;;;14.00;;
62711;SDS011;48772;55.586;37.730;2023-02-25T19:03:58;29.10;;;12.70;;
62711;SDS011;48772;55.586;37.730;2023-02-25T19:06:27;18.42;;;10.82;;
62711;SDS011;48772;55.586;37.730;2023-02-25T19:08:55;22.02;;;12.27;;
62711;SDS011;48772;55.586;37.730;2023-02-25T19:11:22;23.70;;;10.95;;
62711;SDS011;48772;55.586;37.730;2023-02-25T19:13:51;28.92;;;13.13;;
62711;SDS011;48772;55.586;37.730;2023-02-25T19:16:19;36.70;;;14.95;;
62711;SDS011;48772;55.586;37.730;2023-02-25T19:18:47;22.92;;;10.70;;
62711;SDS011;48772;55.586;37.730;2023-02-25T19:21:14;29.00;;;13.70;;
62711;SDS011;48772;55.586;37.730;2023-02-25T19:23:43;25.00;;;12.52;;
62711;SDS011;48772;55.586;37.730;2023-02-25T19:26:10;24.77;;;11.63;;
62711;SDS011;48772;55.586;37.730;2023-02-25T19:28:37;23.83;;;10.45;;
62711;SDS011;48772;55.586;37.730;2023-02-25T19:31:04;24.05;;;10.45;;
62711;SDS011;48772;55.586;37.730;2023-02-25T19:33:31;25.00;;;12.10;;
62711;SDS011;48772;55.586;37.730;2023-02-25T19:36:02;16.67;;;9.88;;
62711;SDS011;48772;55.586;37.730;2023-02-25T19:38:29;20.00;;;11.23;;
62711;SDS011;48772;55.586;37.730;2023-02-25T19:41:00;23.83;;;11.05;;
62711;SDS011;48772;55.586;37.730;2023-02-25T19:43:30;23.23;;;10.30;;
62711;SDS011;48772;55.586;37.730;2023-02-25T19:46:01;25.85;;;10.88;;